sensor_id;sensor_type;location;lat;lon;timestamp;P1;durP1;ratioP1;P2;durP2;ratioP2
69172;SDS011;56280;49.662;8.408;2023-05-31T00:00:33;7.80;;;3.10;;
69172;SDS011;56280;49.662;8.408;2023-05-31T00:02:59;9.43;;;2.97;;
69172;SDS011;56280;49.662;8.408;2023-05-31T00:05:24;7.70;;;2.90;;
69172;SDS011;56280;49.662;8.408;2023-05-31T00:07:49;10.20;;;3.00;;
69172;SDS011;56280;49.662;8.408;2023-05-31T00:10:15;11.87;;;3.20;;
69172;SDS011;56280;49.662;8.408;2023-05-31T00:12:40;8.73;;;3.00;;
69172;SDS011;56280;49.662;8.408;2023-05-31T00:15:05;12.30;;;3.57;;
69172;SDS011;56280;49.662;8.408;2023-05-31T00:17:31;8.70;;;3.17;;
69172;SDS011;56280;49.662;8.408;2023-05-31T00:19:56;9.35;;;3.30;;
69172;SDS011;56280;49.662;8.408;2023-05-31T00:22:21;10.50;;;3.03;;
69172;SDS011;56280;49.662;8.408;2023-05-31T00:24:47;9.37;;;3.47;;
69172;SDS011;56280;49.662;8.408;2023-05-31T00:27:12;8.60;;;3.13;;
69172;SDS011;56280;49.662;8.408;2023-05-31T00:29:37;9.40;;;3.20;;
69172;SDS011;56280;49.662;8.408;2023-05-31T00:32:03;14.73;;;3.40;;
69172;SDS011;56280;49.662;8.408;2023-05-31T00:34:28;10.80;;;3.15;;
69172;SDS011;56280;49.662;8.408;2023-05-31T00:36:53;10.03;;;3.40;;
69172;SDS011;56280;49.662;8.408;2023-05-31T00:39:19;10.30;;;3.30;;
69172;SDS011;56280;49.662;8.408;2023-05-31T00:41:44;10.53;;;3.33;;
69172;SDS011;56280;49.662;8.408;2023-05-31T00:44:09;8.77;;;3.27;;
69172;SDS011;56280;49.662;8.408;2023-05-31T00:46:36;10.17;;;3.83;;
69172;SDS011;56280;49.662;8.408;2023-05-31T00:49:03;7.43;;;3.28;;
69172;SDS011;56280;49.662;8.408;2023-05-31T00:51:28;9.17;;;3.57;;
69172;SDS011;56280;49.662;8.408;2023-05-31T00:53:56;10.57;;;3.55;;
69172;SDS011;56280;49.662;8.408;2023-05-31T00:56:23;11.77;;;3.95;;
69172;SDS011;56280;49.662;8.408;2023-05-31T00:58:48;10.30;;;3.40;;
69172;SDS011;56280;49.662;8.408;2023-05-31T01:01:15;10.80;;;3.70;;
69172;SDS011;56280;49.662;8.408;2023-05-31T01:03:41;12.40;;;4.03;;
69172;SDS011;56280;49.662;8.408;2023-05-31T01:06:07;11.40;;;3.57;;
69172;SDS011;56280;49.662;8.408;2023-05-31T01:08:33;12.45;;;3.70;;
69172;SDS011;56280;49.662;8.408;2023-05-31T01:11:01;13.73;;;3.42;;
69172;SDS011;56280;49.662;8.408;2023-05-31T01:16:26;9.82;;;3.72;;
69172;SDS011;56280;49.662;8.408;2023-05-31T01:18:57;10.13;;;3.53;;
69172;SDS011;56280;49.662;8.408;2023-05-31T01:21:35;9.10;;;3.45;;
69172;SDS011;56280;49.662;8.408;2023-05-31T01:26:56;9.97;;;3.60;;
69172;SDS011;56280;49.662;8.408;2023-05-31T01:29:26;10.63;;;3.50;;
69172;SDS011;56280;49.662;8.408;2023-05-31T01:31:52;9.52;;;3.10;;
69172;SDS011;56280;49.662;8.408;2023-05-31T01:34:18;10.32;;;3.60;;
69172;SDS011;56280;49.662;8.408;2023-05-31T01:36:43;11.07;;;3.47;;
69172;SDS011;56280;49.662;8.408;2023-05-31T01:39:09;10.63;;;3.53;;
69172;SDS011;56280;49.662;8.408;2023-05-31T01:41:36;14.00;;;3.80;;
69172;SDS011;56280;49.662;8.408;2023-05-31T01:44:04;11.50;;;3.45;;
69172;SDS011;56280;49.662;8.408;2023-05-31T01:46:31;10.82;;;3.40;;
69172;SDS011;56280;49.662;8.408;2023-05-31T01:48:56;11.98;;;3.50;;
69172;SDS011;56280;49.662;8.408;2023-05-31T01:51:22;11.55;;;3.60;;
69172;SDS011;56280;49.662;8.408;2023-05-31T01:53:48;9.90;;;3.40;;
69172;SDS011;56280;49.662;8.408;2023-05-31T01:56:14;12.23;;;4.00;;
69172;SDS011;56280;49.662;8.408;2023-05-31T01:58:40;12.27;;;3.80;;
69172;SDS011;56280;49.662;8.408;2023-05-31T02:01:15;10.20;;;3.50;;
69172;SDS011;56280;49.662;8.408;2023-05-31T02:03:42;11.13;;;3.77;;
69172;SDS011;56280;49.662;8.408;2023-05-31T02:06:08;9.60;;;3.65;;
69172;SDS011;56280;49.662;8.408;2023-05-31T02:08:37;10.43;;;3.95;;
69172;SDS011;56280;49.662;8.408;2023-05-31T02:11:03;10.93;;;3.60;;
69172;SDS011;56280;49.662;8.408;2023-05-31T02:13:29;12.17;;;3.33;;
69172;SDS011;56280;49.662;8.408;2023-05-31T02:15:55;10.90;;;3.80;;
69172;SDS011;56280;49.662;8.408;2023-05-31T02:18:21;10.32;;;3.97;;
69172;SDS011;56280;49.662;8.408;2023-05-31T02:20:47;10.77;;;3.78;;
69172;SDS011;56280;49.662;8.408;2023-05-31T02:23:13;11.23;;;4.07;;
69172;SDS011;56280;49.662;8.408;2023-05-31T02:25:38;10.70;;;3.65;;
69172;SDS011;56280;49.662;8.408;2023-05-31T02:28:03;9.07;;;3.63;;
69172;SDS011;56280;49.662;8.408;2023-05-31T02:30:30;12.00;;;3.87;;
69172;SDS011;56280;49.662;8.408;2023-05-31T02:32:56;10.23;;;3.63;;
69172;SDS011;56280;49.662;8.408;2023-05-31T02:35:21;10.63;;;3.90;;
69172;SDS011;56280;49.662;8.408;2023-05-31T02:37:47;9.82;;;3.88;;
69172;SDS011;56280;49.662;8.408;2023-05-31T02:40:12;9.57;;;3.50;;
69172;SDS011;56280;49.662;8.408;2023-05-31T02:42:39;10.77;;;4.00;;
69172;SDS011;56280;49.662;8.408;2023-05-31T02:45:06;11.27;;;3.95;;
69172;SDS011;56280;49.662;8.408;2023-05-31T02:47:32;11.05;;;4.00;;
69172;SDS011;56280;49.662;8.408;2023-05-31T02:49:58;10.65;;;3.95;;
69172;SDS011;56280;49.662;8.408;2023-05-31T02:52:24;10.43;;;4.03;;
69172;SDS011;56280;49.662;8.408;2023-05-31T02:54:50;10.95;;;4.00;;
69172;SDS011;56280;49.662;8.408;2023-05-31T02:57:15;11.77;;;4.23;;
69172;SDS011;56280;49.662;8.408;2023-05-31T02:59:42;12.03;;;4.13;;
69172;SDS011;56280;49.662;8.408;2023-05-31T03:02:08;10.02;;;4.00;;
69172;SDS011;56280;49.662;8.408;2023-05-31T03:04:34;13.00;;;3.67;;
69172;SDS011;56280;49.662;8.408;2023-05-31T03:07:00;11.90;;;4.13;;
69172;SDS011;56280;49.662;8.408;2023-05-31T03:09:25;11.20;;;3.90;;
69172;SDS011;56280;49.662;8.408;2023-05-31T03:11:51;12.87;;;4.17;;
69172;SDS011;56280;49.662;8.408;2023-05-31T03:14:16;13.07;;;4.00;;
69172;SDS011;56280;49.662;8.408;2023-05-31T03:16:42;12.40;;;3.93;;
69172;SDS011;56280;49.662;8.408;2023-05-31T03:19:07;11.20;;;4.00;;
69172;SDS011;56280;49.662;8.408;2023-05-31T03:21:33;10.80;;;3.80;;
69172;SDS011;56280;49.662;8.408;2023-05-31T03:23:58;11.80;;;4.10;;
69172;SDS011;56280;49.662;8.408;2023-05-31T03:26:23;12.37;;;4.33;;
69172;SDS011;56280;49.662;8.408;2023-05-31T03:28:49;10.18;;;3.97;;
69172;SDS011;56280;49.662;8.408;2023-05-31T03:31:14;11.30;;;4.30;;
69172;SDS011;56280;49.662;8.408;2023-05-31T03:33:40;13.27;;;4.53;;
69172;SDS011;56280;49.662;8.408;2023-05-31T03:36:05;14.65;;;4.43;;
69172;SDS011;56280;49.662;8.408;2023-05-31T03:38:31;13.23;;;4.47;;
69172;SDS011;56280;49.662;8.408;2023-05-31T03:40:56;12.83;;;4.60;;
69172;SDS011;56280;49.662;8.408;2023-05-31T03:43:21;12.90;;;4.67;;
69172;SDS011;56280;49.662;8.408;2023-05-31T03:45:47;11.80;;;4.45;;
69172;SDS011;56280;49.662;8.408;2023-05-31T03:48:12;8.87;;;4.30;;
69172;SDS011;56280;49.662;8.408;2023-05-31T03:50:39;12.47;;;4.80;;
69172;SDS011;56280;49.662;8.408;2023-05-31T03:53:05;11.10;;;4.55;;
69172;SDS011;56280;49.662;8.408;2023-05-31T03:55:30;14.10;;;4.33;;
69172;SDS011;56280;49.662;8.408;2023-05-31T03:57:56;11.60;;;4.10;;
69172;SDS011;56280;49.662;8.408;2023-05-31T04:00:21;11.17;;;4.30;;
69172;SDS011;56280;49.662;8.408;2023-05-31T04:02:46;12.90;;;4.40;;
69172;SDS011;56280;49.662;8.408;2023-05-31T04:05:11;11.10;;;4.17;;
69172;SDS011;56280;49.662;8.408;2023-05-31T04:07:37;12.23;;;4.10;;
69172;SDS011;56280;49.662;8.408;2023-05-31T04:10:02;10.53;;;4.13;;
69172;SDS011;56280;49.662;8.408;2023-05-31T04:12:28;11.73;;;4.30;;
69172;SDS011;56280;49.662;8.408;2023-05-31T04:14:53;12.80;;;4.20;;
69172;SDS011;56280;49.662;8.408;2023-05-31T04:17:18;12.43;;;4.50;;
69172;SDS011;56280;49.662;8.408;2023-05-31T04:19:43;12.00;;;4.30;;
69172;SDS011;56280;49.662;8.408;2023-05-31T04:22:09;14.67;;;4.63;;
69172;SDS011;56280;49.662;8.408;2023-05-31T04:24:34;9.63;;;4.20;;
69172;SDS011;56280;49.662;8.408;2023-05-31T04:27:00;12.97;;;3.97;;
69172;SDS011;56280;49.662;8.408;2023-05-31T04:29:27;14.10;;;4.10;;
69172;SDS011;56280;49.662;8.408;2023-05-31T04:31:53;11.80;;;4.30;;
69172;SDS011;56280;49.662;8.408;2023-05-31T04:34:18;11.50;;;4.27;;
69172;SDS011;56280;49.662;8.408;2023-05-31T04:36:44;11.30;;;4.00;;
69172;SDS011;56280;49.662;8.408;2023-05-31T04:39:13;10.57;;;3.60;;
69172;SDS011;56280;49.662;8.408;2023-05-31T04:41:39;10.53;;;4.10;;
69172;SDS011;56280;49.662;8.408;2023-05-31T04:44:05;13.98;;;4.55;;
69172;SDS011;56280;49.662;8.408;2023-05-31T04:46:30;10.77;;;4.27;;
69172;SDS011;56280;49.662;8.408;2023-05-31T04:48:57;13.15;;;4.72;;
69172;SDS011;56280;49.662;8.408;2023-05-31T04:51:23;8.63;;;3.87;;
69172;SDS011;56280;49.662;8.408;2023-05-31T04:53:48;12.10;;;4.17;;
69172;SDS011;56280;49.662;8.408;2023-05-31T04:56:13;11.53;;;4.10;;
69172;SDS011;56280;49.662;8.408;2023-05-31T04:58:39;10.85;;;4.10;;
69172;SDS011;56280;49.662;8.408;2023-05-31T05:01:05;11.37;;;3.70;;
69172;SDS011;56280;49.662;8.408;2023-05-31T05:03:32;11.32;;;4.38;;
69172;SDS011;56280;49.662;8.408;2023-05-31T05:05:57;8.98;;;3.70;;
69172;SDS011;56280;49.662;8.408;2023-05-31T05:08:25;9.33;;;3.67;;
69172;SDS011;56280;49.662;8.408;2023-05-31T05:10:50;9.13;;;4.17;;
69172;SDS011;56280;49.662;8.408;2023-05-31T05:13:16;10.17;;;3.73;;
69172;SDS011;56280;49.662;8.408;2023-05-31T05:15:41;12.67;;;3.97;;
69172;SDS011;56280;49.662;8.408;2023-05-31T05:18:06;10.60;;;4.30;;
69172;SDS011;56280;49.662;8.408;2023-05-31T05:20:32;12.70;;;4.13;;
69172;SDS011;56280;49.662;8.408;2023-05-31T05:22:57;8.88;;;3.72;;
69172;SDS011;56280;49.662;8.408;2023-05-31T05:25:27;10.68;;;4.05;;
69172;SDS011;56280;49.662;8.408;2023-05-31T05:27:52;8.90;;;3.77;;
69172;SDS011;56280;49.662;8.408;2023-05-31T05:30:17;10.60;;;3.73;;
69172;SDS011;56280;49.662;8.408;2023-05-31T05:32:42;12.60;;;4.40;;
69172;SDS011;56280;49.662;8.408;2023-05-31T05:35:08;11.30;;;3.90;;
69172;SDS011;56280;49.662;8.408;2023-05-31T05:37:33;10.63;;;4.00;;
69172;SDS011;56280;49.662;8.408;2023-05-31T05:39:58;10.57;;;4.13;;
69172;SDS011;56280;49.662;8.408;2023-05-31T05:42:25;10.20;;;3.90;;
69172;SDS011;56280;49.662;8.408;2023-05-31T05:44:50;10.82;;;4.20;;
69172;SDS011;56280;49.662;8.408;2023-05-31T05:47:16;8.57;;;4.13;;
69172;SDS011;56280;49.662;8.408;2023-05-31T05:49:41;10.53;;;3.90;;
69172;SDS011;56280;49.662;8.408;2023-05-31T05:52:06;9.87;;;4.30;;
69172;SDS011;56280;49.662;8.408;2023-05-31T05:54:32;12.50;;;4.33;;
69172;SDS011;56280;49.662;8.408;2023-05-31T05:56:57;10.70;;;3.87;;
69172;SDS011;56280;49.662;8.408;2023-05-31T05:59:22;11.23;;;4.43;;
69172;SDS011;56280;49.662;8.408;2023-05-31T06:01:48;11.53;;;4.10;;
69172;SDS011;56280;49.662;8.408;2023-05-31T06:04:13;9.70;;;4.00;;
69172;SDS011;56280;49.662;8.408;2023-05-31T06:06:38;10.37;;;4.20;;
69172;SDS011;56280;49.662;8.408;2023-05-31T06:09:03;10.60;;;4.10;;
69172;SDS011;56280;49.662;8.408;2023-05-31T06:11:29;11.32;;;4.25;;
69172;SDS011;56280;49.662;8.408;2023-05-31T06:13:54;10.88;;;4.05;;
69172;SDS011;56280;49.662;8.408;2023-05-31T06:16:22;10.77;;;4.03;;
69172;SDS011;56280;49.662;8.408;2023-05-31T06:18:48;11.00;;;4.10;;
69172;SDS011;56280;49.662;8.408;2023-05-31T06:21:13;10.83;;;4.17;;
69172;SDS011;56280;49.662;8.408;2023-05-31T06:23:38;10.80;;;3.97;;
69172;SDS011;56280;49.662;8.408;2023-05-31T06:26:03;9.73;;;3.73;;
69172;SDS011;56280;49.662;8.408;2023-05-31T06:28:29;9.63;;;3.50;;
69172;SDS011;56280;49.662;8.408;2023-05-31T06:30:54;9.73;;;4.00;;
69172;SDS011;56280;49.662;8.408;2023-05-31T06:33:20;10.67;;;4.00;;
69172;SDS011;56280;49.662;8.408;2023-05-31T06:35:46;9.63;;;3.97;;
69172;SDS011;56280;49.662;8.408;2023-05-31T06:38:11;12.00;;;3.87;;
69172;SDS011;56280;49.662;8.408;2023-05-31T06:40:41;8.75;;;3.40;;
69172;SDS011;56280;49.662;8.408;2023-05-31T06:43:08;10.02;;;3.60;;
69172;SDS011;56280;49.662;8.408;2023-05-31T06:45:33;9.60;;;3.72;;
69172;SDS011;56280;49.662;8.408;2023-05-31T06:47:59;10.00;;;3.63;;
69172;SDS011;56280;49.662;8.408;2023-05-31T06:50:24;8.50;;;3.50;;
69172;SDS011;56280;49.662;8.408;2023-05-31T06:52:49;8.93;;;3.38;;
69172;SDS011;56280;49.662;8.408;2023-05-31T06:55:15;8.02;;;3.50;;
69172;SDS011;56280;49.662;8.408;2023-05-31T06:57:40;10.40;;;3.45;;
69172;SDS011;56280;49.662;8.408;2023-05-31T07:00:05;9.27;;;3.27;;
69172;SDS011;56280;49.662;8.408;2023-05-31T07:02:32;9.05;;;3.53;;
69172;SDS011;56280;49.662;8.408;2023-05-31T07:04:57;12.70;;;3.60;;
69172;SDS011;56280;49.662;8.408;2023-05-31T07:07:24;8.85;;;2.92;;
69172;SDS011;56280;49.662;8.408;2023-05-31T07:09:50;8.83;;;3.03;;
69172;SDS011;56280;49.662;8.408;2023-05-31T07:12:16;8.13;;;3.20;;
69172;SDS011;56280;49.662;8.408;2023-05-31T07:14:41;7.35;;;2.90;;
69172;SDS011;56280;49.662;8.408;2023-05-31T07:17:06;8.85;;;2.90;;
69172;SDS011;56280;49.662;8.408;2023-05-31T07:19:32;8.13;;;2.97;;
69172;SDS011;56280;49.662;8.408;2023-05-31T07:21:57;8.60;;;2.90;;
69172;SDS011;56280;49.662;8.408;2023-05-31T07:24:22;8.93;;;3.10;;
69172;SDS011;56280;49.662;8.408;2023-05-31T07:26:47;7.70;;;3.10;;
69172;SDS011;56280;49.662;8.408;2023-05-31T07:29:13;8.17;;;2.70;;
69172;SDS011;56280;49.662;8.408;2023-05-31T07:31:38;8.13;;;2.70;;
69172;SDS011;56280;49.662;8.408;2023-05-31T07:34:03;7.87;;;3.23;;
69172;SDS011;56280;49.662;8.408;2023-05-31T07:36:29;8.43;;;2.73;;
69172;SDS011;56280;49.662;8.408;2023-05-31T07:38:55;7.43;;;2.80;;
69172;SDS011;56280;49.662;8.408;2023-05-31T07:41:20;7.70;;;2.80;;
69172;SDS011;56280;49.662;8.408;2023-05-31T07:43:45;5.77;;;2.50;;
69172;SDS011;56280;49.662;8.408;2023-05-31T07:46:11;7.07;;;2.63;;
69172;SDS011;56280;49.662;8.408;2023-05-31T07:48:37;6.35;;;2.70;;
69172;SDS011;56280;49.662;8.408;2023-05-31T07:51:02;8.13;;;2.70;;
69172;SDS011;56280;49.662;8.408;2023-05-31T07:53:27;6.00;;;2.60;;
69172;SDS011;56280;49.662;8.408;2023-05-31T07:55:53;8.00;;;2.90;;
69172;SDS011;56280;49.662;8.408;2023-05-31T07:58:18;7.43;;;2.60;;
69172;SDS011;56280;49.662;8.408;2023-05-31T08:00:44;5.03;;;2.30;;
69172;SDS011;56280;49.662;8.408;2023-05-31T08:03:10;7.93;;;2.67;;
69172;SDS011;56280;49.662;8.408;2023-05-31T08:05:35;6.73;;;2.47;;
69172;SDS011;56280;49.662;8.408;2023-05-31T08:08:00;6.77;;;2.63;;
69172;SDS011;56280;49.662;8.408;2023-05-31T08:10:26;5.47;;;2.50;;
69172;SDS011;56280;49.662;8.408;2023-05-31T08:12:51;6.37;;;2.47;;
69172;SDS011;56280;49.662;8.408;2023-05-31T08:15:16;6.57;;;2.93;;
69172;SDS011;56280;49.662;8.408;2023-05-31T08:17:42;9.77;;;2.70;;
69172;SDS011;56280;49.662;8.408;2023-05-31T08:20:08;7.93;;;2.65;;
69172;SDS011;56280;49.662;8.408;2023-05-31T08:22:35;8.27;;;2.72;;
69172;SDS011;56280;49.662;8.408;2023-05-31T08:25:01;8.03;;;2.47;;
69172;SDS011;56280;49.662;8.408;2023-05-31T08:27:26;7.68;;;2.40;;
69172;SDS011;56280;49.662;8.408;2023-05-31T08:29:52;7.50;;;2.70;;
69172;SDS011;56280;49.662;8.408;2023-05-31T08:32:17;7.70;;;2.60;;
69172;SDS011;56280;49.662;8.408;2023-05-31T08:34:42;6.10;;;2.50;;
69172;SDS011;56280;49.662;8.408;2023-05-31T08:37:10;7.20;;;2.63;;
69172;SDS011;56280;49.662;8.408;2023-05-31T08:39:35;6.72;;;2.63;;
69172;SDS011;56280;49.662;8.408;2023-05-31T08:44:30;6.68;;;2.78;;
69172;SDS011;56280;49.662;8.408;2023-05-31T08:47:12;6.38;;;2.80;;
69172;SDS011;56280;49.662;8.408;2023-05-31T08:49:57;5.70;;;2.30;;
69172;SDS011;56280;49.662;8.408;2023-05-31T08:52:25;7.93;;;2.65;;
69172;SDS011;56280;49.662;8.408;2023-05-31T08:54:50;5.95;;;2.50;;
69172;SDS011;56280;49.662;8.408;2023-05-31T08:57:18;6.75;;;2.45;;
69172;SDS011;56280;49.662;8.408;2023-05-31T08:59:44;7.75;;;2.55;;
69172;SDS011;56280;49.662;8.408;2023-05-31T09:02:10;7.50;;;2.73;;
69172;SDS011;56280;49.662;8.408;2023-05-31T09:04:38;6.00;;;2.40;;
69172;SDS011;56280;49.662;8.408;2023-05-31T09:07:05;8.03;;;2.50;;
69172;SDS011;56280;49.662;8.408;2023-05-31T09:09:30;12.53;;;2.90;;
69172;SDS011;56280;49.662;8.408;2023-05-31T09:11:55;8.27;;;2.70;;
69172;SDS011;56280;49.662;8.408;2023-05-31T09:14:22;5.67;;;2.40;;
69172;SDS011;56280;49.662;8.408;2023-05-31T09:16:48;6.23;;;2.30;;
69172;SDS011;56280;49.662;8.408;2023-05-31T09:19:15;9.93;;;2.38;;
69172;SDS011;56280;49.662;8.408;2023-05-31T09:21:43;7.10;;;2.50;;
69172;SDS011;56280;49.662;8.408;2023-05-31T09:24:10;7.10;;;2.50;;
69172;SDS011;56280;49.662;8.408;2023-05-31T09:26:46;7.25;;;2.55;;
69172;SDS011;56280;49.662;8.408;2023-05-31T09:29:13;7.80;;;2.67;;
69172;SDS011;56280;49.662;8.408;2023-05-31T09:31:38;6.43;;;2.37;;
69172;SDS011;56280;49.662;8.408;2023-05-31T09:34:03;6.33;;;2.60;;
69172;SDS011;56280;49.662;8.408;2023-05-31T09:36:30;5.13;;;2.25;;
69172;SDS011;56280;49.662;8.408;2023-05-31T09:39:00;5.70;;;2.20;;
69172;SDS011;56280;49.662;8.408;2023-05-31T09:41:29;6.18;;;2.22;;
69172;SDS011;56280;49.662;8.408;2023-05-31T09:43:55;5.00;;;2.13;;
69172;SDS011;56280;49.662;8.408;2023-05-31T09:46:21;5.70;;;2.17;;
69172;SDS011;56280;49.662;8.408;2023-05-31T09:49:00;6.00;;;2.20;;
69172;SDS011;56280;49.662;8.408;2023-05-31T09:51:28;5.30;;;2.07;;
69172;SDS011;56280;49.662;8.408;2023-05-31T09:53:57;5.78;;;2.33;;
69172;SDS011;56280;49.662;8.408;2023-05-31T09:56:23;6.53;;;2.50;;
69172;SDS011;56280;49.662;8.408;2023-05-31T09:58:50;5.47;;;1.90;;
69172;SDS011;56280;49.662;8.408;2023-05-31T10:01:17;4.55;;;2.00;;
69172;SDS011;56280;49.662;8.408;2023-05-31T10:03:43;5.60;;;2.10;;
69172;SDS011;56280;49.662;8.408;2023-05-31T10:06:10;5.80;;;2.22;;
69172;SDS011;56280;49.662;8.408;2023-05-31T10:08:36;5.33;;;1.93;;
69172;SDS011;56280;49.662;8.408;2023-05-31T10:11:02;5.40;;;2.15;;
69172;SDS011;56280;49.662;8.408;2023-05-31T10:13:29;7.65;;;2.20;;
69172;SDS011;56280;49.662;8.408;2023-05-31T10:15:56;5.40;;;2.03;;
69172;SDS011;56280;49.662;8.408;2023-05-31T10:18:27;4.53;;;2.10;;
69172;SDS011;56280;49.662;8.408;2023-05-31T10:23:49;7.07;;;2.28;;
69172;SDS011;56280;49.662;8.408;2023-05-31T10:29:14;5.28;;;2.00;;
69172;SDS011;56280;49.662;8.408;2023-05-31T10:31:49;5.57;;;2.13;;
69172;SDS011;56280;49.662;8.408;2023-05-31T10:34:19;5.80;;;2.30;;
69172;SDS011;56280;49.662;8.408;2023-05-31T10:36:47;4.90;;;2.10;;
69172;SDS011;56280;49.662;8.408;2023-05-31T10:39:15;5.65;;;2.00;;
69172;SDS011;56280;49.662;8.408;2023-05-31T10:41:48;4.75;;;2.08;;
69172;SDS011;56280;49.662;8.408;2023-05-31T10:44:19;4.85;;;1.98;;
69172;SDS011;56280;49.662;8.408;2023-05-31T10:46:49;6.50;;;2.00;;
69172;SDS011;56280;49.662;8.408;2023-05-31T10:49:21;6.28;;;2.10;;
69172;SDS011;56280;49.662;8.408;2023-05-31T10:51:48;6.63;;;2.10;;
69172;SDS011;56280;49.662;8.408;2023-05-31T10:54:21;4.55;;;1.95;;
69172;SDS011;56280;49.662;8.408;2023-05-31T10:56:52;6.23;;;2.10;;
69172;SDS011;56280;49.662;8.408;2023-05-31T10:59:23;5.45;;;2.00;;
69172;SDS011;56280;49.662;8.408;2023-05-31T11:01:49;6.33;;;2.10;;
69172;SDS011;56280;49.662;8.408;2023-05-31T11:04:19;6.70;;;2.03;;
69172;SDS011;56280;49.662;8.408;2023-05-31T11:06:52;5.07;;;2.00;;
69172;SDS011;56280;49.662;8.408;2023-05-31T11:09:20;6.05;;;2.03;;
69172;SDS011;56280;49.662;8.408;2023-05-31T11:11:47;5.93;;;1.90;;
69172;SDS011;56280;49.662;8.408;2023-05-31T11:19:34;6.78;;;1.90;;
69172;SDS011;56280;49.662;8.408;2023-05-31T11:22:14;5.97;;;2.40;;
69172;SDS011;56280;49.662;8.408;2023-05-31T11:24:51;4.57;;;1.90;;
69172;SDS011;56280;49.662;8.408;2023-05-31T11:27:20;5.88;;;1.95;;
69172;SDS011;56280;49.662;8.408;2023-05-31T11:30:09;5.43;;;1.90;;
69172;SDS011;56280;49.662;8.408;2023-05-31T11:35:03;5.53;;;2.10;;
69172;SDS011;56280;49.662;8.408;2023-05-31T11:37:32;4.40;;;1.90;;
69172;SDS011;56280;49.662;8.408;2023-05-31T11:40:00;7.07;;;1.80;;
69172;SDS011;56280;49.662;8.408;2023-05-31T11:42:30;6.45;;;2.00;;
69172;SDS011;56280;49.662;8.408;2023-05-31T11:44:57;6.28;;;1.80;;
69172;SDS011;56280;49.662;8.408;2023-05-31T11:50:24;4.15;;;1.70;;
69172;SDS011;56280;49.662;8.408;2023-05-31T11:52:49;5.93;;;2.00;;
69172;SDS011;56280;49.662;8.408;2023-05-31T11:55:15;4.20;;;1.90;;
69172;SDS011;56280;49.662;8.408;2023-05-31T11:57:43;7.75;;;2.10;;
69172;SDS011;56280;49.662;8.408;2023-05-31T12:00:10;5.10;;;1.70;;
69172;SDS011;56280;49.662;8.408;2023-05-31T12:02:39;4.85;;;2.00;;
69172;SDS011;56280;49.662;8.408;2023-05-31T12:05:05;4.97;;;1.70;;
69172;SDS011;56280;49.662;8.408;2023-05-31T12:07:30;5.65;;;1.95;;
69172;SDS011;56280;49.662;8.408;2023-05-31T12:09:56;6.23;;;1.87;;
69172;SDS011;56280;49.662;8.408;2023-05-31T12:12:22;6.65;;;1.90;;
69172;SDS011;56280;49.662;8.408;2023-05-31T12:14:51;7.43;;;1.87;;
69172;SDS011;56280;49.662;8.408;2023-05-31T12:17:17;5.13;;;1.90;;
69172;SDS011;56280;49.662;8.408;2023-05-31T12:19:42;6.23;;;2.03;;
69172;SDS011;56280;49.662;8.408;2023-05-31T12:22:07;6.27;;;1.87;;
69172;SDS011;56280;49.662;8.408;2023-05-31T12:24:33;5.13;;;1.90;;
69172;SDS011;56280;49.662;8.408;2023-05-31T12:27:01;5.07;;;1.90;;
69172;SDS011;56280;49.662;8.408;2023-05-31T12:29:27;5.20;;;2.15;;
69172;SDS011;56280;49.662;8.408;2023-05-31T12:32:02;7.97;;;1.90;;
69172;SDS011;56280;49.662;8.408;2023-05-31T12:34:29;6.35;;;2.00;;
69172;SDS011;56280;49.662;8.408;2023-05-31T12:36:57;10.55;;;2.20;;
69172;SDS011;56280;49.662;8.408;2023-05-31T12:39:29;4.90;;;1.90;;
69172;SDS011;56280;49.662;8.408;2023-05-31T12:41:55;4.57;;;1.70;;
69172;SDS011;56280;49.662;8.408;2023-05-31T12:44:22;4.90;;;1.73;;
69172;SDS011;56280;49.662;8.408;2023-05-31T12:46:49;6.07;;;2.00;;
69172;SDS011;56280;49.662;8.408;2023-05-31T12:49:25;5.75;;;1.90;;
69172;SDS011;56280;49.662;8.408;2023-05-31T12:51:58;5.20;;;2.00;;
69172;SDS011;56280;49.662;8.408;2023-05-31T12:54:26;5.70;;;1.75;;
69172;SDS011;56280;49.662;8.408;2023-05-31T12:56:52;5.47;;;2.00;;
69172;SDS011;56280;49.662;8.408;2023-05-31T12:59:18;5.53;;;1.83;;
69172;SDS011;56280;49.662;8.408;2023-05-31T13:01:44;4.47;;;1.83;;
69172;SDS011;56280;49.662;8.408;2023-05-31T13:04:10;5.27;;;1.83;;
69172;SDS011;56280;49.662;8.408;2023-05-31T13:06:37;5.68;;;1.90;;
69172;SDS011;56280;49.662;8.408;2023-05-31T13:09:03;5.53;;;1.80;;
69172;SDS011;56280;49.662;8.408;2023-05-31T13:11:31;5.78;;;1.98;;
69172;SDS011;56280;49.662;8.408;2023-05-31T13:13:57;7.03;;;2.13;;
69172;SDS011;56280;49.662;8.408;2023-05-31T13:16:23;4.87;;;1.90;;
69172;SDS011;56280;49.662;8.408;2023-05-31T13:18:48;6.57;;;2.03;;
69172;SDS011;56280;49.662;8.408;2023-05-31T13:21:14;5.83;;;2.00;;
69172;SDS011;56280;49.662;8.408;2023-05-31T13:23:40;5.43;;;1.83;;
69172;SDS011;56280;49.662;8.408;2023-05-31T13:26:05;5.72;;;2.10;;
69172;SDS011;56280;49.662;8.408;2023-05-31T13:28:31;5.88;;;2.00;;
69172;SDS011;56280;49.662;8.408;2023-05-31T13:30:56;4.50;;;1.87;;
69172;SDS011;56280;49.662;8.408;2023-05-31T13:33:21;5.63;;;1.80;;
69172;SDS011;56280;49.662;8.408;2023-05-31T13:35:47;5.00;;;2.20;;
69172;SDS011;56280;49.662;8.408;2023-05-31T13:38:12;8.37;;;2.03;;
69172;SDS011;56280;49.662;8.408;2023-05-31T13:40:39;5.00;;;2.00;;
69172;SDS011;56280;49.662;8.408;2023-05-31T13:43:04;4.07;;;1.90;;
69172;SDS011;56280;49.662;8.408;2023-05-31T13:45:29;4.90;;;1.80;;
69172;SDS011;56280;49.662;8.408;2023-05-31T13:47:55;4.93;;;1.80;;
69172;SDS011;56280;49.662;8.408;2023-05-31T13:50:20;3.70;;;1.60;;
69172;SDS011;56280;49.662;8.408;2023-05-31T13:52:46;6.65;;;2.00;;
69172;SDS011;56280;49.662;8.408;2023-05-31T13:55:11;5.60;;;2.13;;
69172;SDS011;56280;49.662;8.408;2023-05-31T13:57:36;5.90;;;1.63;;
69172;SDS011;56280;49.662;8.408;2023-05-31T14:00:02;5.00;;;1.67;;
69172;SDS011;56280;49.662;8.408;2023-05-31T14:02:29;4.32;;;1.75;;
69172;SDS011;56280;49.662;8.408;2023-05-31T14:04:57;6.22;;;1.85;;
69172;SDS011;56280;49.662;8.408;2023-05-31T14:07:22;5.83;;;1.90;;
69172;SDS011;56280;49.662;8.408;2023-05-31T14:09:47;6.47;;;1.60;;
69172;SDS011;56280;49.662;8.408;2023-05-31T14:12:13;4.93;;;1.80;;
69172;SDS011;56280;49.662;8.408;2023-05-31T14:14:38;4.93;;;1.90;;
69172;SDS011;56280;49.662;8.408;2023-05-31T14:17:04;3.85;;;1.70;;
69172;SDS011;56280;49.662;8.408;2023-05-31T14:19:29;5.90;;;1.90;;
69172;SDS011;56280;49.662;8.408;2023-05-31T14:21:54;4.80;;;1.90;;
69172;SDS011;56280;49.662;8.408;2023-05-31T14:24:20;4.73;;;1.70;;
69172;SDS011;56280;49.662;8.408;2023-05-31T14:26:46;5.45;;;1.80;;
69172;SDS011;56280;49.662;8.408;2023-05-31T14:29:11;5.30;;;1.70;;
69172;SDS011;56280;49.662;8.408;2023-05-31T14:31:36;4.17;;;1.60;;
69172;SDS011;56280;49.662;8.408;2023-05-31T14:34:02;5.03;;;1.53;;
69172;SDS011;56280;49.662;8.408;2023-05-31T14:36:28;4.35;;;1.58;;
69172;SDS011;56280;49.662;8.408;2023-05-31T14:38:54;4.88;;;1.70;;
69172;SDS011;56280;49.662;8.408;2023-05-31T14:41:19;5.10;;;1.70;;
69172;SDS011;56280;49.662;8.408;2023-05-31T14:43:45;6.17;;;1.87;;
69172;SDS011;56280;49.662;8.408;2023-05-31T14:46:11;4.85;;;1.70;;
69172;SDS011;56280;49.662;8.408;2023-05-31T14:48:37;5.10;;;1.83;;
69172;SDS011;56280;49.662;8.408;2023-05-31T14:51:02;6.20;;;1.90;;
69172;SDS011;56280;49.662;8.408;2023-05-31T14:53:27;5.63;;;1.65;;
69172;SDS011;56280;49.662;8.408;2023-05-31T14:55:53;5.50;;;1.70;;
69172;SDS011;56280;49.662;8.408;2023-05-31T14:58:18;5.90;;;1.60;;
69172;SDS011;56280;49.662;8.408;2023-05-31T15:00:43;4.22;;;1.48;;
69172;SDS011;56280;49.662;8.408;2023-05-31T15:03:08;5.38;;;1.92;;